createdAt,value
2022-08-05T00:00:46.517Z,3.05
2022-08-05T00:03:16.687Z,3.00
2022-08-05T00:06:05.672Z,3.20
2022-08-05T00:08:34.569Z,2.65
2022-08-05T00:11:23.733Z,2.83
2022-08-05T00:13:54.908Z,2.50
2022-08-05T00:16:36.174Z,2.40
2022-08-05T00:19:08.089Z,2.58
2022-08-05T00:21:35.710Z,2.55
2022-08-05T00:24:10.622Z,2.60
2022-08-05T00:26:38.340Z,2.58
2022-08-05T00:29:04.830Z,2.42
2022-08-05T00:31:53.986Z,2.70
2022-08-05T00:34:54.080Z,2.63
2022-08-05T00:37:10.602Z,2.30
2022-08-05T00:39:57.211Z,2.20
2022-08-05T00:42:32.507Z,2.30
2022-08-05T00:44:59.760Z,2.50
2022-08-05T00:47:26.443Z,2.45
2022-08-05T00:50:12.925Z,2.30
2022-08-05T00:52:40.093Z,2.53
2022-08-05T00:55:06.835Z,2.22
2022-08-05T00:57:55.303Z,2.80
2022-08-05T01:00:20.016Z,2.33
2022-08-05T01:02:50.197Z,2.63
2022-08-05T01:05:16.748Z,2.50
2022-08-05T01:08:30.351Z,2.40
2022-08-05T01:10:41.753Z,2.90
2022-08-05T01:13:58.951Z,2.95
2022-08-05T01:16:38.348Z,2.28
2022-08-05T01:19:46.117Z,2.38
2022-08-05T01:22:27.982Z,2.75
2022-08-05T01:25:13.723Z,2.67
2022-08-05T01:28:00.073Z,2.20
2022-08-05T01:30:33.620Z,2.60
2022-08-05T01:33:06.145Z,2.38
2022-08-05T01:35:50.635Z,2.67
2022-08-05T01:38:27.291Z,2.22
2022-08-05T01:41:01.802Z,2.70
2022-08-05T01:43:29.682Z,2.58
2022-08-05T01:45:57.638Z,2.63
2022-08-05T01:48:27.069Z,3.03
2022-08-05T01:50:55.305Z,3.35
2022-08-05T01:56:10.597Z,3.75
2022-08-05T01:58:40.923Z,3.80
2022-08-05T02:01:14.893Z,3.78
2022-08-05T02:03:53.058Z,3.75
2022-08-05T02:06:37.331Z,3.90
2022-08-05T02:09:05.860Z,4.38
2022-08-05T02:11:52.636Z,4.17
2022-08-05T02:14:32.171Z,3.85
2022-08-05T02:17:06.857Z,4.03
2022-08-05T02:19:47.070Z,3.95
2022-08-05T02:22:25.561Z,3.80
2022-08-05T02:25:02.929Z,3.40
2022-08-05T02:27:57.957Z,3.65
2022-08-05T02:30:20.217Z,3.88
2022-08-05T02:32:51.349Z,4.05
2022-08-05T02:35:28.321Z,3.40
2022-08-05T02:38:02.304Z,3.88
2022-08-05T02:40:31.410Z,3.97
2022-08-05T02:42:59.705Z,3.70
2022-08-05T02:50:47.120Z,3.50
2022-08-05T02:53:19.208Z,3.45
2022-08-05T02:56:00.082Z,3.88
2022-08-05T02:58:30.244Z,3.75
2022-08-05T03:01:00.865Z,4.68
2022-08-05T03:03:33.855Z,4.32
2022-08-05T03:06:54.060Z,4.10
2022-08-05T03:08:52.148Z,5.15
2022-08-05T03:11:56.015Z,4.55
2022-08-05T03:14:08.291Z,3.97
2022-08-05T03:16:35.625Z,4.40
2022-08-05T03:19:17.202Z,3.80
2022-08-05T03:21:49.974Z,4.10
2022-08-05T03:24:30.228Z,4.68
2022-08-05T03:26:59.361Z,4.45
2022-08-05T03:29:45.165Z,3.90
2022-08-05T03:32:14.318Z,4.07
2022-08-05T03:37:08.372Z,4.45
2022-08-05T03:39:57.823Z,4.50
2022-08-05T03:42:23.981Z,4.45
2022-08-05T03:44:53.696Z,3.75
2022-08-05T03:47:20.132Z,4.32
2022-08-05T03:49:51.838Z,4.15
2022-08-05T03:52:38.609Z,3.97
2022-08-05T03:56:04.296Z,4.07
2022-08-05T03:58:08.959Z,3.33
2022-08-05T04:00:38.477Z,3.78
2022-08-05T04:03:14.834Z,3.72
2022-08-05T04:05:54.044Z,3.88
2022-08-05T04:08:34.905Z,3.35
2022-08-05T04:11:04.320Z,4.13
2022-08-05T04:13:50.036Z,4.50
2022-08-05T04:16:24.250Z,3.67
2022-08-05T04:18:54.448Z,3.67
2022-08-05T04:22:10.006Z,3.70
2022-08-05T04:24:08.940Z,4.00
2022-08-05T04:26:40.732Z,4.20
2022-08-05T04:29:07.622Z,4.43
2022-08-05T04:31:38.812Z,3.75
2022-08-05T04:34:18.397Z,4.20
2022-08-05T04:36:52.567Z,3.83
2022-08-05T04:39:20.397Z,3.60
2022-08-05T04:41:48.342Z,3.97
2022-08-05T04:44:21.049Z,3.50
2022-08-05T04:46:50.827Z,3.25
2022-08-05T04:49:19.278Z,3.47
2022-08-05T04:52:05.083Z,3.85
2022-08-05T04:54:34.444Z,3.60
2022-08-05T04:57:01.231Z,3.97
2022-08-05T04:59:38.424Z,3.80
2022-08-05T05:04:52.545Z,3.95
2022-08-05T05:07:29.349Z,3.67
2022-08-05T05:09:56.050Z,3.90
2022-08-05T05:12:24.263Z,3.20
2022-08-05T05:14:54.088Z,3.72
2022-08-05T05:17:24.187Z,3.80
2022-08-05T05:19:54.296Z,3.78
2022-08-05T05:22:22.671Z,3.30
2022-08-05T05:24:56.973Z,3.28
2022-08-05T05:27:44.376Z,3.92
2022-08-05T05:30:28.796Z,3.95
2022-08-05T05:33:00.255Z,3.50
2022-08-05T05:35:37.629Z,3.60
2022-08-05T05:38:08.929Z,3.80
2022-08-05T05:40:38.545Z,3.50
2022-08-05T05:43:10.254Z,3.60
2022-08-05T05:45:36.852Z,3.25
2022-08-05T05:48:16.082Z,3.53
2022-08-05T05:50:44.290Z,3.15
2022-08-05T05:53:21.937Z,3.08
2022-08-05T05:58:31.904Z,3.28
2022-08-05T06:01:12.147Z,3.40
2022-08-05T06:04:01.138Z,3.20
2022-08-05T06:06:27.825Z,2.97
2022-08-05T06:08:57.112Z,3.15
2022-08-05T06:11:23.592Z,3.05
2022-08-05T06:13:50.443Z,3.13
2022-08-05T06:16:29.865Z,3.22
2022-08-05T06:19:00.771Z,3.28
2022-08-05T06:21:36.131Z,3.47
2022-08-05T06:24:06.304Z,3.33
2022-08-05T06:26:39.344Z,3.13
2022-08-05T06:29:23.714Z,3.00
2022-08-05T06:31:52.598Z,3.40
2022-08-05T06:34:19.887Z,3.00
2022-08-05T06:36:57.851Z,3.00
2022-08-05T06:39:27.243Z,3.20
2022-08-05T06:41:56.340Z,3.10
2022-08-05T06:44:25.231Z,3.10
2022-08-05T06:46:52.878Z,2.88
2022-08-05T06:50:00.453Z,2.75
2022-08-05T06:52:08.105Z,2.60
2022-08-05T06:54:54.555Z,2.63
2022-08-05T06:58:03.889Z,3.03
2022-08-05T07:00:09.692Z,2.80
2022-08-05T07:02:43.625Z,2.35
2022-08-05T07:05:14.118Z,2.33
2022-08-05T07:07:48.833Z,2.22
2022-08-05T07:10:16.520Z,2.40
2022-08-05T07:13:02.831Z,2.10
2022-08-05T07:16:01.644Z,2.50
2022-08-05T07:18:31.854Z,2.00
2022-08-05T07:20:58.606Z,1.67
2022-08-05T07:23:31.472Z,2.00
2022-08-05T07:25:57.966Z,2.00
2022-08-05T07:28:25.204Z,2.40
2022-08-05T07:30:52.966Z,2.28
2022-08-05T07:33:36.697Z,1.95
2022-08-05T07:36:20.900Z,2.05
2022-08-05T07:38:48.932Z,1.80
2022-08-05T07:42:08.619Z,2.20
2022-08-05T07:44:14.046Z,2.20
2022-08-05T07:46:41.251Z,1.90
2022-08-05T07:49:14.665Z,2.10
2022-08-05T07:51:52.913Z,1.77
2022-08-05T07:54:30.704Z,1.75
2022-08-05T07:57:22.456Z,1.92
2022-08-05T08:02:17.608Z,2.05
2022-08-05T08:04:49.374Z,1.60
2022-08-05T08:07:22.478Z,1.60
2022-08-05T08:09:52.012Z,1.88
2022-08-05T08:12:35.103Z,1.77
2022-08-05T08:15:15.767Z,1.98
2022-08-05T08:17:49.942Z,2.58
2022-08-05T08:21:01.011Z,1.92
2022-08-05T08:23:59.934Z,2.55
2022-08-05T08:25:59.097Z,1.70
2022-08-05T08:28:36.510Z,1.60
2022-08-05T08:31:17.445Z,1.73
2022-08-05T08:33:44.849Z,1.90
2022-08-05T08:36:38.872Z,1.73
2022-08-05T08:38:58.289Z,2.00
2022-08-05T08:41:51.119Z,1.73
2022-08-05T08:45:19.288Z,1.60
2022-08-05T08:47:47.048Z,2.00
2022-08-05T08:50:22.950Z,1.70
2022-08-05T08:52:51.869Z,1.60
2022-08-05T08:56:01.964Z,1.90
2022-08-05T08:58:07.308Z,1.77
2022-08-05T09:00:36.007Z,1.33
2022-08-05T09:03:06.482Z,1.60
2022-08-05T09:05:38.432Z,1.67
2022-08-05T09:08:19.837Z,1.60
2022-08-05T09:10:53.280Z,1.52
2022-08-05T09:13:19.934Z,1.55
2022-08-05T09:15:50.900Z,1.80
2022-08-05T09:18:17.571Z,1.50
2022-08-05T09:20:47.191Z,1.60
2022-08-05T09:23:19.601Z,1.70
2022-08-05T09:26:06.202Z,1.35
2022-08-05T09:28:34.942Z,2.03
2022-08-05T09:31:23.442Z,1.50
2022-08-05T09:33:58.494Z,1.50
2022-08-05T09:36:54.847Z,1.40
2022-08-05T09:39:24.523Z,1.42
2022-08-05T09:42:07.803Z,1.40
2022-08-05T09:44:35.979Z,1.20
2022-08-05T09:47:12.783Z,1.77
2022-08-05T09:50:02.043Z,1.55
2022-08-05T09:52:36.384Z,1.40
2022-08-05T09:55:56.650Z,1.30
2022-08-05T09:57:59.977Z,1.52
2022-08-05T10:00:27.833Z,1.35
2022-08-05T10:02:58.106Z,1.90
2022-08-05T10:05:32.780Z,1.60
2022-08-05T10:08:35.229Z,1.77
2022-08-05T10:10:50.189Z,1.98
2022-08-05T10:13:44.028Z,1.70
2022-08-05T10:16:42.019Z,1.83
2022-08-05T10:19:23.770Z,1.50
2022-08-05T10:22:08.996Z,1.50
2022-08-05T10:24:42.265Z,1.80
2022-08-05T10:27:14.319Z,1.48
2022-08-05T10:30:06.300Z,1.45
2022-08-05T10:32:51.847Z,1.50
2022-08-05T10:37:45.274Z,1.60
2022-08-05T10:40:27.915Z,1.42
2022-08-05T10:43:01.558Z,1.80
2022-08-05T10:45:39.695Z,1.45
2022-08-05T10:48:36.114Z,1.60
2022-08-05T10:51:22.022Z,1.58
2022-08-05T10:53:55.134Z,1.60
2022-08-05T10:56:27.733Z,1.50
2022-08-05T10:58:55.368Z,1.42
2022-08-05T11:01:54.513Z,1.60
2022-08-05T11:04:26.210Z,1.23
2022-08-05T11:07:04.425Z,1.40
2022-08-05T11:09:45.331Z,1.40
2022-08-05T11:12:37.283Z,1.33
2022-08-05T11:15:20.453Z,1.50
2022-08-05T11:18:00.279Z,1.70
2022-08-05T11:20:47.495Z,1.40
2022-08-05T11:24:05.717Z,1.50
2022-08-05T11:26:40.444Z,1.80
2022-08-05T11:29:42.690Z,1.50
2022-08-05T11:32:41.591Z,3.50
2022-08-05T11:35:08.137Z,1.73
2022-08-05T11:38:26.118Z,1.77
2022-08-05T11:41:00.810Z,1.58
2022-08-05T11:44:01.070Z,2.15
2022-08-05T11:46:32.368Z,1.80
2022-08-05T11:49:01.383Z,1.67
2022-08-05T11:54:34.367Z,1.63
2022-08-05T11:57:07.908Z,2.03
2022-08-05T12:02:24.286Z,1.63
2022-08-05T12:04:59.683Z,1.40
2022-08-05T12:08:09.100Z,1.83
2022-08-05T12:10:19.535Z,1.80
2022-08-05T12:12:58.452Z,1.50
2022-08-05T12:15:35.743Z,2.10
2022-08-05T12:18:10.641Z,2.67
2022-08-05T12:20:38.766Z,1.80
2022-08-05T12:23:10.702Z,1.75
2022-08-05T12:25:56.803Z,1.50
2022-08-05T12:28:39.357Z,1.98
2022-08-05T12:31:06.313Z,1.70
2022-08-05T12:33:36.768Z,1.80
2022-08-05T12:36:08.187Z,1.80
2022-08-05T12:38:39.766Z,1.90
2022-08-05T12:41:14.183Z,1.80
2022-08-05T12:43:51.253Z,1.88
2022-08-05T12:46:28.773Z,2.05
2022-08-05T12:49:00.896Z,2.05
2022-08-05T12:52:13.619Z,1.98
2022-08-05T12:54:26.492Z,1.80
2022-08-05T12:57:02.755Z,2.00
2022-08-05T13:00:08.749Z,2.13
2022-08-05T13:02:27.471Z,1.80
2022-08-05T13:04:57.314Z,1.88
2022-08-05T13:07:57.123Z,2.10
2022-08-05T13:10:15.112Z,1.70
2022-08-05T13:12:51.220Z,1.77
2022-08-05T13:15:41.632Z,1.63
2022-08-05T13:18:18.802Z,2.17
2022-08-05T13:20:47.250Z,1.75
2022-08-05T13:23:16.429Z,1.65
2022-08-05T13:25:51.831Z,2.10
2022-08-05T13:28:25.828Z,2.80
2022-08-05T13:30:53.276Z,9.35
2022-08-05T13:34:23.605Z,8.95
2022-08-05T13:36:10.183Z,2.00
2022-08-05T13:38:38.451Z,1.20
2022-08-05T13:41:10.861Z,1.48
2022-08-05T13:46:38.033Z,1.48
2022-08-05T13:49:10.486Z,1.30
2022-08-05T13:51:41.669Z,1.25
2022-08-05T13:54:37.827Z,1.20
2022-08-05T13:57:04.614Z,1.13
2022-08-05T13:59:32.855Z,1.27
2022-08-05T14:02:00.973Z,1.30
2022-08-05T14:04:52.312Z,1.27
2022-08-05T14:07:56.255Z,1.13
2022-08-05T14:10:12.548Z,1.40
2022-08-05T14:12:42.823Z,1.25
2022-08-05T14:16:05.605Z,1.17
2022-08-05T14:17:59.713Z,1.55
2022-08-05T14:20:29.380Z,0.95
2022-08-05T14:22:56.136Z,1.08
2022-08-05T14:25:22.763Z,0.90
2022-08-05T14:27:55.365Z,1.23
2022-08-05T14:30:22.022Z,1.17
2022-08-05T14:32:49.014Z,1.20
2022-08-05T14:35:16.267Z,1.17
2022-08-05T14:37:52.112Z,1.10
2022-08-05T14:40:21.708Z,0.93
2022-08-05T14:42:51.229Z,0.90
2022-08-05T14:45:18.312Z,1.27
2022-08-05T14:48:04.007Z,0.90
2022-08-05T14:50:31.739Z,1.10
2022-08-05T14:52:59.565Z,1.13
2022-08-05T14:58:11.847Z,1.10
2022-08-05T15:00:58.577Z,1.00
2022-08-05T15:03:33.887Z,1.50
2022-08-05T15:06:07.453Z,1.02
2022-08-05T15:09:01.073Z,1.48
2022-08-05T15:11:50.978Z,2.50
2022-08-05T15:14:33.217Z,1.20
2022-08-05T15:16:59.927Z,1.10
2022-08-05T15:19:26.469Z,0.93
2022-08-05T15:21:53.286Z,1.08
2022-08-05T15:24:24.507Z,1.30
2022-08-05T15:26:51.227Z,1.20
2022-08-05T15:29:17.784Z,1.27
2022-08-05T15:31:49.743Z,1.23
2022-08-05T15:34:32.172Z,1.40
2022-08-05T15:37:03.495Z,1.77
2022-08-05T15:41:01.898Z,2.00
2022-08-05T15:42:50.340Z,1.48
2022-08-05T15:45:06.288Z,1.75
2022-08-05T15:47:32.948Z,1.60
2022-08-05T15:50:02.763Z,1.85
2022-08-05T15:52:52.816Z,2.22
2022-08-05T15:55:20.128Z,1.90
2022-08-05T15:57:52.095Z,1.83
2022-08-05T16:00:30.503Z,2.08
2022-08-05T16:03:06.636Z,1.92
2022-08-05T16:05:33.681Z,1.77
2022-08-05T16:08:00.833Z,1.67
2022-08-05T16:10:27.953Z,1.92
2022-08-05T16:12:56.273Z,1.73
2022-08-05T16:15:23.897Z,1.73
2022-08-05T16:17:57.482Z,2.20
2022-08-05T16:20:25.599Z,1.70
2022-08-05T16:22:54.508Z,1.90
2022-08-05T16:25:21.023Z,2.05
2022-08-05T16:28:02.250Z,1.60
2022-08-05T16:30:33.447Z,1.42
2022-08-05T16:33:00.972Z,1.10
2022-08-05T16:35:32.560Z,1.20
2022-08-05T16:38:03.627Z,0.98
2022-08-05T16:40:52.024Z,0.82
2022-08-05T16:43:23.717Z,1.30
2022-08-05T16:46:06.703Z,1.35
2022-08-05T16:48:36.060Z,1.50
2022-08-05T16:51:03.791Z,1.00
2022-08-05T16:54:04.148Z,1.30
2022-08-05T16:56:22.705Z,0.95
2022-08-05T16:58:49.970Z,1.10
2022-08-05T17:01:16.806Z,1.33
2022-08-05T17:03:45.662Z,0.88
2022-08-05T17:06:12.144Z,1.30
2022-08-05T17:08:52.988Z,1.05
2022-08-05T17:11:25.389Z,1.45
2022-08-05T17:14:05.658Z,0.98
2022-08-05T17:16:38.050Z,0.80
2022-08-05T17:19:09.679Z,0.52
2022-08-05T17:21:39.734Z,0.80
2022-08-05T17:24:14.328Z,0.90
2022-08-05T17:26:56.247Z,0.63
2022-08-05T17:29:34.086Z,0.90
2022-08-05T17:32:17.142Z,0.90
2022-08-05T17:34:46.186Z,0.73
2022-08-05T17:37:39.681Z,0.80
2022-08-05T17:40:01.218Z,0.60
2022-08-05T17:42:31.907Z,0.70
2022-08-05T17:44:59.289Z,0.77
2022-08-05T17:47:27.164Z,0.80
2022-08-05T17:50:03.882Z,0.90
2022-08-05T17:52:35.098Z,0.82
2022-08-05T17:55:20.770Z,0.60
2022-08-05T17:57:50.030Z,0.45
2022-08-05T18:00:16.924Z,0.52
2022-08-05T18:02:43.509Z,0.60
2022-08-05T18:05:10.263Z,0.60
2022-08-05T18:07:44.006Z,0.93
2022-08-05T18:10:20.356Z,0.63
2022-08-05T18:12:47.560Z,1.15
2022-08-05T18:15:14.215Z,0.80
2022-08-05T18:18:01.035Z,0.90
2022-08-05T18:20:29.316Z,0.90
2022-08-05T18:22:59.261Z,0.77
2022-08-05T18:25:35.313Z,0.98
2022-08-05T18:28:05.076Z,1.77
2022-08-05T18:30:33.039Z,2.88
2022-08-05T18:33:00.279Z,15.00
2022-08-05T18:36:00.067Z,1.05
2022-08-05T18:38:16.537Z,3.25
2022-08-05T18:41:57.574Z,0.88
2022-08-05T18:43:38.108Z,1.30
2022-08-05T18:46:09.528Z,0.88
2022-08-05T18:48:41.425Z,0.98
2022-08-05T18:52:05.983Z,1.80
2022-08-05T18:54:13.436Z,1.33
2022-08-05T18:56:40.454Z,1.17
2022-08-05T18:59:43.839Z,0.80
2022-08-05T19:01:57.094Z,1.38
2022-08-05T19:04:25.183Z,1.50
2022-08-05T19:06:51.861Z,1.75
2022-08-05T19:09:20.593Z,1.58
2022-08-05T19:11:59.155Z,1.20
2022-08-05T19:14:44.932Z,1.15
2022-08-05T19:17:13.859Z,1.00
2022-08-05T19:22:17.340Z,0.90
2022-08-05T19:24:54.577Z,0.73
2022-08-05T19:27:23.943Z,1.00
2022-08-05T19:29:51.824Z,0.93
2022-08-05T19:32:18.423Z,0.98
2022-08-05T19:34:54.555Z,0.90
2022-08-05T19:37:34.946Z,0.82
2022-08-05T19:42:38.850Z,1.00
2022-08-05T19:45:07.019Z,0.75
2022-08-05T19:47:37.918Z,1.00
2022-08-05T19:50:07.593Z,1.10
2022-08-05T19:52:37.165Z,1.92
2022-08-05T19:55:07.114Z,1.20
2022-08-05T19:58:06.689Z,1.05
2022-08-05T20:00:38.251Z,0.98
2022-08-05T20:03:08.433Z,1.27
2022-08-05T20:05:43.086Z,1.30
2022-08-05T20:08:17.034Z,1.15
2022-08-05T20:10:43.497Z,1.15
2022-08-05T20:13:10.870Z,1.27
2022-08-05T20:15:52.850Z,1.50
2022-08-05T20:18:33.390Z,1.20
2022-08-05T20:21:04.539Z,1.27
2022-08-05T20:23:39.749Z,1.05
2022-08-05T20:26:21.054Z,0.95
2022-08-05T20:28:50.235Z,1.02
2022-08-05T20:31:17.609Z,0.98
2022-08-05T20:33:48.733Z,1.20
2022-08-05T20:36:16.172Z,2.15
2022-08-05T20:38:54.315Z,1.50
2022-08-05T20:41:27.104Z,1.20
2022-08-05T20:43:58.989Z,1.20
2022-08-05T20:46:28.137Z,1.65
2022-08-05T20:48:54.735Z,1.60
2022-08-05T20:51:21.525Z,1.58
2022-08-05T20:53:56.667Z,1.33
2022-08-05T20:56:28.782Z,1.50
2022-08-05T20:59:00.079Z,1.58
2022-08-05T21:01:39.057Z,1.90
2022-08-05T21:04:10.361Z,1.43
2022-08-05T21:06:45.676Z,2.00
2022-08-05T21:09:14.288Z,1.73
2022-08-05T21:12:07.759Z,1.92
2022-08-05T21:14:29.131Z,1.63
2022-08-05T21:17:01.684Z,1.90
2022-08-05T21:19:29.688Z,1.70
2022-08-05T21:22:14.466Z,1.77
2022-08-05T21:24:40.980Z,1.60
2022-08-05T21:27:09.095Z,1.70
2022-08-05T21:29:40.663Z,1.70
2022-08-05T21:32:07.604Z,1.70
2022-08-05T21:34:35.494Z,1.70
2022-08-05T21:37:02.328Z,1.75
2022-08-05T21:39:29.259Z,2.10
2022-08-05T21:42:01.691Z,2.33
2022-08-05T21:44:29.897Z,1.88
2022-08-05T21:46:58.117Z,2.97
2022-08-05T21:49:58.721Z,1.90
2022-08-05T21:52:22.553Z,1.63
2022-08-05T21:54:55.393Z,1.52
2022-08-05T21:57:37.655Z,1.70
2022-08-05T22:00:11.522Z,1.80
2022-08-05T22:02:38.572Z,1.58
2022-08-05T22:05:06.005Z,1.58
2022-08-05T22:07:54.282Z,1.80
2022-08-05T22:10:25.494Z,1.80
2022-08-05T22:12:54.449Z,1.65
2022-08-05T22:16:01.845Z,1.40
2022-08-05T22:18:11.139Z,2.10
2022-08-05T22:20:38.937Z,1.60
2022-08-05T22:24:02.815Z,1.70
2022-08-05T22:26:41.013Z,1.60
2022-08-05T22:29:07.603Z,1.40
2022-08-05T22:31:45.003Z,1.48
2022-08-05T22:34:12.853Z,1.90
2022-08-05T22:36:52.336Z,1.70
2022-08-05T22:39:21.451Z,1.85
2022-08-05T22:42:09.626Z,2.00
2022-08-05T22:44:34.849Z,1.90
2022-08-05T22:47:04.937Z,2.20
2022-08-05T22:50:18.001Z,1.90
2022-08-05T22:52:30.683Z,1.63
2022-08-05T22:55:00.808Z,1.90
2022-08-05T22:57:27.343Z,1.77
2022-08-05T23:00:04.279Z,1.77
2022-08-05T23:02:30.911Z,1.60
2022-08-05T23:05:01.940Z,1.60
2022-08-05T23:07:32.299Z,1.77
2022-08-05T23:10:01.696Z,1.73
2022-08-05T23:12:32.974Z,2.13
2022-08-05T23:15:08.883Z,1.83
2022-08-05T23:17:37.882Z,1.48
2022-08-05T23:20:23.545Z,1.45
2022-08-05T23:22:55.636Z,1.60
2022-08-05T23:25:52.763Z,1.85
2022-08-05T23:28:09.858Z,1.67
2022-08-05T23:30:39.559Z,1.70
2022-08-05T23:33:07.261Z,1.90
2022-08-05T23:38:12.167Z,1.83
2022-08-05T23:40:40.728Z,2.38
2022-08-05T23:43:24.394Z,1.90
2022-08-05T23:45:55.362Z,1.80
2022-08-05T23:48:22.154Z,1.75
2022-08-05T23:50:51.786Z,1.83
2022-08-05T23:53:22.233Z,1.67
2022-08-05T23:55:49.732Z,1.70
2022-08-05T23:58:31.621Z,1.70
